createdAt,value
2023-05-12T00:01:29.283Z,101186.00
2023-05-12T00:03:59.549Z,101186.00
2023-05-12T00:06:32.451Z,101191.00
2023-05-12T00:09:02.869Z,101185.00
2023-05-12T00:11:33.502Z,101182.00
2023-05-12T00:14:03.892Z,101182.00
2023-05-12T00:16:34.440Z,101193.00
2023-05-12T00:19:04.712Z,101186.00
2023-05-12T00:21:37.619Z,101179.00
2023-05-12T00:24:09.352Z,101187.00
2023-05-12T00:26:39.986Z,101190.00
2023-05-12T00:29:10.525Z,101186.00
2023-05-12T00:31:41.040Z,101176.00
2023-05-12T00:34:11.598Z,101182.00
2023-05-12T00:36:44.307Z,101183.00
2023-05-12T00:39:14.370Z,101181.00
2023-05-12T00:41:44.702Z,101184.00
2023-05-12T00:44:15.038Z,101184.00
2023-05-12T00:46:45.494Z,101180.00
2023-05-12T00:49:16.131Z,101176.00
2023-05-12T00:51:49.792Z,101182.00
2023-05-12T00:54:20.591Z,101178.00
2023-05-12T00:56:50.910Z,101189.00
2023-05-12T00:59:21.258Z,101179.00
2023-05-12T01:01:53.045Z,101180.00
2023-05-12T01:04:23.555Z,101189.00
2023-05-12T01:07:02.436Z,101182.00
2023-05-12T01:09:32.783Z,101193.00
2023-05-12T01:12:03.291Z,101176.00
2023-05-12T01:14:34.432Z,101185.00
2023-05-12T01:17:10.874Z,101187.00
2023-05-12T01:19:45.004Z,101190.00
2023-05-12T01:22:18.401Z,101188.00
2023-05-12T01:24:57.093Z,101195.00
2023-05-12T01:27:31.328Z,101202.00
2023-05-12T01:30:06.429Z,101197.00
2023-05-12T01:32:37.149Z,101195.00
2023-05-12T01:35:08.592Z,101194.00
2023-05-12T01:37:39.062Z,101191.00
2023-05-12T01:40:11.228Z,101193.00
2023-05-12T01:42:45.630Z,101205.00
2023-05-12T01:45:15.868Z,101200.00
2023-05-12T01:47:46.012Z,101196.00
2023-05-12T01:50:16.502Z,101208.00
2023-05-12T01:52:46.825Z,101199.00
2023-05-12T01:55:17.733Z,101210.00
2023-05-12T01:57:50.563Z,101206.00
2023-05-12T02:00:21.932Z,101205.00
2023-05-12T02:02:52.469Z,101204.00
2023-05-12T02:05:22.995Z,101200.00
2023-05-12T02:07:53.455Z,101206.00
2023-05-12T02:10:23.555Z,101210.00
2023-05-12T02:12:56.641Z,101209.00
2023-05-12T02:15:27.630Z,101213.00
2023-05-12T02:17:58.703Z,101212.00
2023-05-12T02:20:30.011Z,101211.00
2023-05-12T02:23:01.150Z,101215.00
2023-05-12T02:25:31.810Z,101213.00
2023-05-12T02:28:05.033Z,101220.00
2023-05-12T02:30:35.243Z,101222.00
2023-05-12T02:33:06.218Z,101218.00
2023-05-12T02:35:36.905Z,101225.00
2023-05-12T02:38:07.740Z,101224.00
2023-05-12T02:40:38.040Z,101226.00
2023-05-12T02:43:11.398Z,101219.00
2023-05-12T02:45:42.000Z,101219.00
2023-05-12T02:48:12.427Z,101220.00
2023-05-12T02:50:43.489Z,101225.00
2023-05-12T02:53:13.733Z,101225.00
2023-05-12T02:55:44.328Z,101215.00
2023-05-12T02:58:17.148Z,101223.00
2023-05-12T03:00:50.201Z,101221.00
2023-05-12T03:03:24.647Z,101228.00
2023-05-12T03:05:54.961Z,101225.00
2023-05-12T03:08:25.541Z,101223.00
2023-05-12T03:10:55.987Z,101218.00
2023-05-12T03:13:29.391Z,101221.00
2023-05-12T03:16:01.894Z,101225.00
2023-05-12T03:18:32.155Z,101219.00
2023-05-12T03:21:03.585Z,101223.00
2023-05-12T03:23:34.468Z,101227.00
2023-05-12T03:26:04.934Z,101228.00
2023-05-12T03:28:37.855Z,101224.00
2023-05-12T03:31:08.678Z,101225.00
2023-05-12T03:33:39.117Z,101221.00
2023-05-12T03:36:10.326Z,101237.00
2023-05-12T03:38:40.543Z,101231.00
2023-05-12T03:41:11.516Z,101232.00
2023-05-12T03:43:46.726Z,101230.00
2023-05-12T03:46:17.451Z,101230.00
2023-05-12T03:48:47.760Z,101236.00
2023-05-12T03:51:18.561Z,101235.00
2023-05-12T03:53:48.736Z,101236.00
2023-05-12T03:56:19.960Z,101233.00
2023-05-12T03:58:52.808Z,101242.00
2023-05-12T04:01:22.975Z,101237.00
2023-05-12T04:03:53.119Z,101250.00
2023-05-12T04:06:23.305Z,101237.00
2023-05-12T04:08:53.792Z,101240.00
2023-05-12T04:11:24.328Z,101240.00
2023-05-12T04:13:57.581Z,101255.00
2023-05-12T04:16:28.198Z,101244.00
2023-05-12T04:18:58.582Z,101248.00
2023-05-12T04:21:29.312Z,101247.00
2023-05-12T04:23:59.811Z,101258.00
2023-05-12T04:26:29.961Z,101255.00
2023-05-12T04:29:03.459Z,101255.00
2023-05-12T04:31:34.213Z,101244.00
2023-05-12T04:34:04.776Z,101262.00
2023-05-12T04:36:34.946Z,101257.00
2023-05-12T04:39:05.625Z,101266.00
2023-05-12T04:41:36.536Z,101252.00
2023-05-12T04:44:10.417Z,101262.00
2023-05-12T04:46:40.602Z,101266.00
2023-05-12T04:49:11.154Z,101259.00
2023-05-12T04:51:44.664Z,101264.00
2023-05-12T04:54:15.219Z,101266.00
2023-05-12T04:56:45.832Z,101264.00
2023-05-12T04:59:19.051Z,101266.00
2023-05-12T05:01:49.277Z,101262.00
2023-05-12T05:04:19.608Z,101277.00
2023-05-12T05:06:49.958Z,101280.00
2023-05-12T05:09:20.074Z,101285.00
2023-05-12T05:11:50.216Z,101281.00
2023-05-12T05:14:23.475Z,101294.00
2023-05-12T05:16:54.251Z,101288.00
2023-05-12T05:19:35.282Z,101287.00
2023-05-12T05:22:15.339Z,101299.00
2023-05-12T05:24:45.534Z,101297.00
2023-05-12T05:27:17.164Z,101293.00
2023-05-12T05:29:50.369Z,101294.00
2023-05-12T05:32:20.610Z,101291.00
2023-05-12T05:34:51.112Z,101294.00
2023-05-12T05:37:21.649Z,101284.00
2023-05-12T05:39:52.194Z,101291.00
2023-05-12T05:42:22.660Z,101303.00
2023-05-12T05:44:56.313Z,101300.00
2023-05-12T05:47:28.516Z,101302.00
2023-05-12T05:49:58.807Z,101298.00
2023-05-12T05:52:28.890Z,101300.00
2023-05-12T05:54:59.084Z,101306.00
2023-05-12T05:57:30.013Z,101308.00
2023-05-12T06:00:02.795Z,101312.00
2023-05-12T06:02:33.658Z,101310.00
2023-05-12T06:05:04.374Z,101320.00
2023-05-12T06:07:34.801Z,101318.00
2023-05-12T06:10:05.292Z,101319.00
2023-05-12T06:12:35.561Z,101316.00
2023-05-12T06:15:10.316Z,101322.00
2023-05-12T06:17:41.011Z,101319.00
2023-05-12T06:20:13.565Z,101324.00
2023-05-12T06:22:44.968Z,101324.00
2023-05-12T06:25:15.098Z,101328.00
2023-05-12T06:27:45.314Z,101332.00
2023-05-12T06:30:18.791Z,101332.00
2023-05-12T06:32:49.294Z,101336.00
2023-05-12T06:35:19.950Z,101333.00
2023-05-12T06:37:51.230Z,101340.00
2023-05-12T06:40:21.898Z,101338.00
2023-05-12T06:42:52.440Z,101338.00
2023-05-12T06:45:26.449Z,101340.00
2023-05-12T06:47:58.094Z,101337.00
2023-05-12T06:50:28.625Z,101334.00
2023-05-12T06:52:59.005Z,101342.00
2023-05-12T06:55:29.819Z,101324.00
2023-05-12T06:57:59.940Z,101340.00
2023-05-12T07:00:32.716Z,101343.00
2023-05-12T07:03:02.930Z,101342.00
2023-05-12T07:05:33.408Z,101339.00
2023-05-12T07:08:07.248Z,101333.00
2023-05-12T07:10:40.875Z,101352.00
2023-05-12T07:13:11.159Z,101345.00
2023-05-12T07:15:43.998Z,101355.00
2023-05-12T07:18:14.249Z,101352.00
2023-05-12T07:20:44.702Z,101342.00
2023-05-12T07:23:14.931Z,101350.00
2023-05-12T07:25:45.349Z,101348.00
2023-05-12T07:28:15.809Z,101355.00
2023-05-12T07:30:48.914Z,101350.00
2023-05-12T07:33:19.004Z,101350.00
2023-05-12T07:35:49.596Z,101344.00
2023-05-12T07:38:20.163Z,101339.00
2023-05-12T07:40:50.732Z,101344.00
2023-05-12T07:43:21.849Z,101337.00
2023-05-12T07:45:56.260Z,101344.00
2023-05-12T07:48:26.767Z,101341.00
2023-05-12T07:50:57.722Z,101345.00
2023-05-12T07:53:28.163Z,101350.00
2023-05-12T07:55:58.213Z,101348.00
2023-05-12T07:58:28.331Z,101355.00
2023-05-12T08:01:06.052Z,101351.00
2023-05-12T08:03:36.438Z,101358.00
2023-05-12T08:06:07.640Z,101356.00
2023-05-12T08:08:38.061Z,101359.00
2023-05-12T08:11:08.528Z,101351.00
2023-05-12T08:13:39.958Z,101340.00
2023-05-12T08:16:12.989Z,101364.00
2023-05-12T08:18:43.031Z,101362.00
2023-05-12T08:21:13.472Z,101347.00
2023-05-12T08:23:44.885Z,101351.00
2023-05-12T08:26:15.287Z,101362.00
2023-05-12T08:28:45.366Z,101350.00
2023-05-12T08:31:18.449Z,101357.00
2023-05-12T08:33:51.805Z,101349.00
2023-05-12T08:36:24.585Z,101349.00
2023-05-12T08:38:56.441Z,101344.00
2023-05-12T08:41:40.393Z,101351.00
2023-05-12T08:44:12.099Z,101358.00
2023-05-12T08:46:45.893Z,101352.00
2023-05-12T08:49:20.498Z,101356.00
2023-05-12T08:51:57.856Z,101351.00
2023-05-12T08:54:31.669Z,101351.00
2023-05-12T08:59:36.285Z,101349.00
2023-05-12T09:02:12.688Z,101341.00
2023-05-12T09:04:43.171Z,101344.00
2023-05-12T09:07:14.252Z,101348.00
2023-05-12T09:09:47.851Z,101343.00
2023-05-12T09:12:24.509Z,101345.00
2023-05-12T09:15:08.111Z,101346.00
2023-05-12T09:17:41.723Z,101361.00
2023-05-12T09:20:23.814Z,101358.00
2023-05-12T09:23:00.617Z,101355.00
2023-05-12T09:25:30.808Z,101341.00
2023-05-12T09:28:00.963Z,101344.00
2023-05-12T09:30:38.424Z,101342.00
2023-05-12T09:33:12.675Z,101344.00
2023-05-12T09:35:44.234Z,101348.00
2023-05-12T09:38:16.652Z,101352.00
2023-05-12T09:40:47.426Z,101338.00
2023-05-12T09:43:19.469Z,101344.00
2023-05-12T09:45:50.799Z,101338.00
2023-05-12T09:48:24.890Z,101336.00
2023-05-12T09:50:56.213Z,101344.00
2023-05-12T09:53:26.664Z,101336.00
2023-05-12T09:55:56.846Z,101330.00
2023-05-12T09:58:29.923Z,101335.00
2023-05-12T10:01:18.301Z,101340.00
2023-05-12T10:03:55.711Z,101330.00
2023-05-12T10:06:30.784Z,101341.00
2023-05-12T10:09:09.224Z,101340.00
2023-05-12T10:11:39.597Z,101331.00
2023-05-12T10:14:10.083Z,101329.00
2023-05-12T10:16:41.372Z,101334.00
2023-05-12T10:19:15.145Z,101335.00
2023-05-12T10:21:47.902Z,101329.00
2023-05-12T10:24:18.998Z,101327.00
2023-05-12T10:26:49.698Z,101325.00
2023-05-12T10:29:20.148Z,101327.00
2023-05-12T10:31:50.837Z,101329.00
2023-05-12T10:34:23.581Z,101325.00
2023-05-12T10:36:55.159Z,101315.00
2023-05-12T10:39:33.050Z,101323.00
2023-05-12T10:42:09.862Z,101331.00
2023-05-12T10:44:52.563Z,101317.00
2023-05-12T10:47:27.147Z,101316.00
2023-05-12T10:50:02.656Z,101314.00
2023-05-12T10:52:32.792Z,101317.00
2023-05-12T10:55:05.257Z,101316.00
2023-05-12T10:57:36.591Z,101313.00
2023-05-12T11:00:07.828Z,101315.00
2023-05-12T11:02:39.655Z,101308.00
2023-05-12T11:05:17.173Z,101308.00
2023-05-12T11:07:52.576Z,101304.00
2023-05-12T11:10:24.271Z,101311.00
2023-05-12T11:12:56.166Z,101307.00
2023-05-12T11:15:27.619Z,101303.00
2023-05-12T11:17:57.646Z,101302.00
2023-05-12T11:20:31.149Z,101308.00
2023-05-12T11:23:01.391Z,101305.00
2023-05-12T11:25:31.514Z,101300.00
2023-05-12T11:28:01.707Z,101300.00
2023-05-12T11:30:31.765Z,101307.00
2023-05-12T11:33:05.710Z,101300.00
2023-05-12T11:35:38.645Z,101311.00
2023-05-12T11:38:18.717Z,101304.00
2023-05-12T11:40:49.076Z,101297.00
2023-05-12T11:43:24.262Z,101312.00
2023-05-12T11:45:55.571Z,101319.00
2023-05-12T11:48:35.599Z,101314.00
2023-05-12T11:51:08.285Z,101317.00
2023-05-12T11:53:43.808Z,101313.00
2023-05-12T11:56:22.172Z,101316.00
2023-05-12T11:58:57.642Z,101326.00
2023-05-12T12:01:28.865Z,101317.00
2023-05-12T12:03:59.085Z,101326.00
2023-05-12T12:06:31.765Z,101321.00
2023-05-12T12:09:02.848Z,101319.00
2023-05-12T12:11:35.031Z,101314.00
2023-05-12T12:14:05.949Z,101320.00
2023-05-12T12:16:36.268Z,101324.00
2023-05-12T12:19:07.536Z,101331.00
2023-05-12T12:21:40.218Z,101325.00
2023-05-12T12:24:10.529Z,101323.00
2023-05-12T12:26:40.571Z,101314.00
2023-05-12T12:29:10.649Z,101311.00
2023-05-12T12:31:40.867Z,101311.00
2023-05-12T12:34:10.974Z,101313.00
2023-05-12T12:36:43.957Z,101320.00
2023-05-12T12:39:14.821Z,101327.00
2023-05-12T12:41:44.887Z,101327.00
2023-05-12T12:44:14.917Z,101313.00
2023-05-12T12:46:45.103Z,101327.00
2023-05-12T12:49:15.200Z,101328.00
2023-05-12T12:51:47.853Z,101333.00
2023-05-12T12:54:18.086Z,101321.00
2023-05-12T12:56:48.157Z,101322.00
2023-05-12T12:59:18.214Z,101316.00
2023-05-12T13:01:48.554Z,101314.00
2023-05-12T13:04:22.580Z,101316.00
2023-05-12T13:06:55.295Z,101321.00
2023-05-12T13:09:25.499Z,101318.00
2023-05-12T13:11:56.004Z,101314.00
2023-05-12T13:14:26.354Z,101311.00
2023-05-12T13:16:56.830Z,101306.00
2023-05-12T13:19:27.627Z,101314.00
2023-05-12T13:22:00.350Z,101306.00
2023-05-12T13:24:30.371Z,101303.00
2023-05-12T13:27:00.518Z,101310.00
2023-05-12T13:29:30.623Z,101321.00
2023-05-12T13:32:00.638Z,101308.00
2023-05-12T13:34:30.796Z,101318.00
2023-05-12T13:37:03.733Z,101319.00
2023-05-12T13:39:35.793Z,101309.00
2023-05-12T13:42:06.352Z,101310.00
2023-05-12T13:44:36.724Z,101306.00
2023-05-12T13:47:08.065Z,101303.00
2023-05-12T13:49:38.537Z,101312.00
2023-05-12T13:52:11.474Z,101310.00
2023-05-12T13:54:41.552Z,101297.00
2023-05-12T13:57:11.590Z,101294.00
2023-05-12T13:59:41.606Z,101302.00
2023-05-12T14:02:13.928Z,101296.00
2023-05-12T14:04:44.041Z,101284.00
2023-05-12T14:07:16.680Z,101300.00
2023-05-12T14:09:46.748Z,101301.00
2023-05-12T14:12:17.229Z,101291.00
2023-05-12T14:14:50.056Z,101299.00
2023-05-12T14:17:20.357Z,101287.00
2023-05-12T14:19:50.494Z,101292.00
2023-05-12T14:22:26.387Z,101294.00
2023-05-12T14:24:57.521Z,101300.00
2023-05-12T14:27:27.694Z,101291.00
2023-05-12T14:29:57.789Z,101296.00
2023-05-12T14:32:28.022Z,101298.00
2023-05-12T14:34:58.158Z,101299.00
2023-05-12T14:37:31.649Z,101291.00
2023-05-12T14:40:01.774Z,101303.00
2023-05-12T14:42:32.516Z,101302.00
2023-05-12T14:45:02.809Z,101290.00
2023-05-12T14:47:33.109Z,101301.00
2023-05-12T14:50:03.370Z,101304.00
2023-05-12T14:52:38.725Z,101303.00
2023-05-12T14:55:12.362Z,101305.00
2023-05-12T14:57:42.931Z,101299.00
2023-05-12T15:00:16.249Z,101307.00
2023-05-12T15:02:47.721Z,101305.00
2023-05-12T15:05:18.243Z,101304.00
2023-05-12T15:07:50.917Z,101287.00
2023-05-12T15:10:21.087Z,101306.00
2023-05-12T15:12:51.147Z,101291.00
2023-05-12T15:15:21.395Z,101300.00
2023-05-12T15:17:51.704Z,101298.00
2023-05-12T15:20:21.994Z,101299.00
2023-05-12T15:22:55.158Z,101298.00
2023-05-12T15:25:25.170Z,101302.00
2023-05-12T15:27:55.297Z,101307.00
2023-05-12T15:30:25.782Z,101303.00
2023-05-12T15:32:55.843Z,101309.00
2023-05-12T15:35:27.700Z,101303.00
2023-05-12T15:38:00.332Z,101302.00
2023-05-12T15:40:31.264Z,101302.00
2023-05-12T15:43:01.419Z,101301.00
2023-05-12T15:45:31.656Z,101296.00
2023-05-12T15:48:01.796Z,101296.00
2023-05-12T15:50:31.984Z,101300.00
2023-05-12T15:53:04.870Z,101300.00
2023-05-12T15:55:34.952Z,101297.00
2023-05-12T15:58:05.949Z,101296.00
2023-05-12T16:00:36.409Z,101299.00
2023-05-12T16:03:06.661Z,101289.00
2023-05-12T16:05:38.225Z,101289.00
2023-05-12T16:08:10.896Z,101297.00
2023-05-12T16:10:41.123Z,101297.00
2023-05-12T16:13:11.203Z,101303.00
2023-05-12T16:15:41.267Z,101298.00
2023-05-12T16:18:11.720Z,101288.00
2023-05-12T16:20:42.115Z,101296.00
2023-05-12T16:23:14.730Z,101292.00
2023-05-12T16:25:44.876Z,101285.00
2023-05-12T16:28:15.009Z,101286.00
2023-05-12T16:30:45.305Z,101289.00
2023-05-12T16:33:15.901Z,101280.00
2023-05-12T16:35:45.958Z,101289.00
2023-05-12T16:38:18.574Z,101284.00
2023-05-12T16:40:48.624Z,101282.00
2023-05-12T16:43:18.682Z,101288.00
2023-05-12T16:45:48.933Z,101297.00
2023-05-12T16:48:19.246Z,101291.00
2023-05-12T16:50:49.295Z,101287.00
2023-05-12T16:53:21.958Z,101298.00
2023-05-12T16:55:51.985Z,101291.00
2023-05-12T16:58:22.331Z,101286.00
2023-05-12T17:00:52.427Z,101298.00
2023-05-12T17:03:22.986Z,101288.00
2023-05-12T17:05:53.218Z,101280.00
2023-05-12T17:08:25.923Z,101288.00
2023-05-12T17:10:56.101Z,101295.00
2023-05-12T17:13:26.344Z,101292.00
2023-05-12T17:15:56.607Z,101306.00
2023-05-12T17:18:26.971Z,101306.00
2023-05-12T17:20:57.033Z,101305.00
2023-05-12T17:23:30.162Z,101306.00
2023-05-12T17:26:00.261Z,101306.00
2023-05-12T17:28:30.408Z,101306.00
2023-05-12T17:31:01.526Z,101315.00
2023-05-12T17:33:31.729Z,101314.00
2023-05-12T17:36:12.465Z,101313.00
2023-05-12T17:38:46.324Z,101317.00
2023-05-12T17:41:16.622Z,101316.00
2023-05-12T17:43:46.672Z,101317.00
2023-05-12T17:46:16.937Z,101318.00
2023-05-12T17:48:47.012Z,101320.00
2023-05-12T17:51:17.115Z,101315.00
2023-05-12T17:53:49.745Z,101321.00
2023-05-12T17:56:19.846Z,101322.00
2023-05-12T17:58:50.014Z,101322.00
2023-05-12T18:01:20.158Z,101325.00
2023-05-12T18:03:50.257Z,101330.00
2023-05-12T18:06:20.289Z,101331.00
2023-05-12T18:08:53.396Z,101335.00
2023-05-12T18:11:23.652Z,101333.00
2023-05-12T18:13:53.982Z,101336.00
2023-05-12T18:16:29.041Z,101337.00
2023-05-12T18:19:00.119Z,101348.00
2023-05-12T18:21:30.384Z,101330.00
2023-05-12T18:24:03.112Z,101340.00
2023-05-12T18:26:33.654Z,101351.00
2023-05-12T18:29:03.766Z,101352.00
2023-05-12T18:31:34.548Z,101347.00
2023-05-12T18:34:04.613Z,101345.00
2023-05-12T18:36:34.766Z,101367.00
2023-05-12T18:39:08.823Z,101367.00
2023-05-12T18:41:39.102Z,101365.00
2023-05-12T18:44:10.555Z,101367.00
2023-05-12T18:46:40.687Z,101368.00
2023-05-12T18:49:11.305Z,101372.00
2023-05-12T18:51:41.378Z,101371.00
2023-05-12T18:54:14.040Z,101370.00
2023-05-12T18:56:44.134Z,101380.00
2023-05-12T18:59:14.182Z,101381.00
2023-05-12T19:01:44.225Z,101378.00
2023-05-12T19:04:14.404Z,101387.00
2023-05-12T19:06:44.476Z,101381.00
2023-05-12T19:09:17.472Z,101391.00
2023-05-12T19:11:48.198Z,101393.00
2023-05-12T19:14:18.389Z,101392.00
2023-05-12T19:16:48.743Z,101396.00
2023-05-12T19:19:18.909Z,101395.00
2023-05-12T19:21:48.999Z,101407.00
2023-05-12T19:24:22.090Z,101405.00
2023-05-12T19:26:52.144Z,101411.00
2023-05-12T19:29:24.620Z,101416.00
2023-05-12T19:31:55.884Z,101410.00
2023-05-12T19:34:26.306Z,101418.00
2023-05-12T19:36:56.402Z,101421.00
2023-05-12T19:39:29.181Z,101415.00
2023-05-12T19:41:59.212Z,101419.00
2023-05-12T19:44:30.186Z,101417.00
2023-05-12T19:47:04.959Z,101411.00
2023-05-12T19:49:37.203Z,101408.00
2023-05-12T19:52:09.116Z,101416.00
2023-05-12T19:54:41.746Z,101421.00
2023-05-12T19:57:11.898Z,101421.00
2023-05-12T19:59:41.955Z,101421.00
2023-05-12T20:02:17.217Z,101419.00
2023-05-12T20:04:47.496Z,101425.00
2023-05-12T20:07:17.586Z,101435.00
2023-05-12T20:09:50.241Z,101427.00
2023-05-12T20:12:20.273Z,101432.00
2023-05-12T20:14:50.317Z,101438.00
2023-05-12T20:17:20.427Z,101435.00
2023-05-12T20:19:50.623Z,101434.00
2023-05-12T20:22:21.582Z,101437.00
2023-05-12T20:24:54.230Z,101430.00
2023-05-12T20:27:24.284Z,101428.00
2023-05-12T20:29:54.397Z,101436.00
2023-05-12T20:32:24.525Z,101427.00
2023-05-12T20:34:54.775Z,101428.00
2023-05-12T20:37:24.960Z,101426.00
2023-05-12T20:39:57.658Z,101426.00
2023-05-12T20:42:27.807Z,101429.00
2023-05-12T20:44:59.236Z,101424.00
2023-05-12T20:47:30.870Z,101437.00
2023-05-12T20:50:05.645Z,101435.00
2023-05-12T20:52:35.837Z,101429.00
2023-05-12T20:55:10.584Z,101436.00
2023-05-12T20:57:41.780Z,101436.00
2023-05-12T21:00:13.897Z,101434.00
2023-05-12T21:02:43.993Z,101437.00
2023-05-12T21:05:14.032Z,101443.00
2023-05-12T21:07:44.092Z,101443.00
2023-05-12T21:10:16.802Z,101443.00
2023-05-12T21:12:46.966Z,101455.00
2023-05-12T21:15:17.359Z,101456.00
2023-05-12T21:17:47.424Z,101446.00
2023-05-12T21:20:17.481Z,101454.00
2023-05-12T21:22:47.524Z,101459.00
2023-05-12T21:25:20.940Z,101458.00
2023-05-12T21:27:51.959Z,101456.00
2023-05-12T21:30:22.501Z,101457.00
2023-05-12T21:32:52.792Z,101463.00
2023-05-12T21:35:22.972Z,101460.00
2023-05-12T21:37:53.061Z,101464.00
2023-05-12T21:40:25.689Z,101463.00
2023-05-12T21:42:55.744Z,101464.00
2023-05-12T21:45:26.230Z,101463.00
2023-05-12T21:47:56.431Z,101464.00
2023-05-12T21:50:26.565Z,101452.00
2023-05-12T21:52:56.633Z,101465.00
2023-05-12T21:55:29.262Z,101470.00
2023-05-12T21:57:59.318Z,101460.00
2023-05-12T22:00:29.360Z,101462.00
2023-05-12T22:02:59.487Z,101466.00
2023-05-12T22:05:29.707Z,101466.00
2023-05-12T22:08:00.933Z,101460.00
2023-05-12T22:10:34.174Z,101469.00
2023-05-12T22:13:04.204Z,101462.00
2023-05-12T22:15:34.870Z,101459.00
2023-05-12T22:18:05.460Z,101461.00
2023-05-12T22:20:35.852Z,101467.00
2023-05-12T22:23:06.457Z,101464.00
2023-05-12T22:25:39.219Z,101463.00
2023-05-12T22:28:09.307Z,101465.00
2023-05-12T22:30:39.384Z,101460.00
2023-05-12T22:33:09.474Z,101471.00
2023-05-12T22:35:39.587Z,101469.00
2023-05-12T22:38:09.617Z,101464.00
2023-05-12T22:40:43.056Z,101462.00
2023-05-12T22:43:13.922Z,101470.00
2023-05-12T22:45:43.973Z,101461.00
2023-05-12T22:48:14.011Z,101468.00
2023-05-12T22:50:44.036Z,101471.00
2023-05-12T22:53:14.277Z,101467.00
2023-05-12T22:55:47.356Z,101467.00
2023-05-12T22:58:17.523Z,101472.00
2023-05-12T23:00:47.569Z,101471.00
2023-05-12T23:03:17.675Z,101475.00
2023-05-12T23:05:47.714Z,101469.00
2023-05-12T23:08:17.746Z,101471.00
2023-05-12T23:10:50.440Z,101472.00
2023-05-12T23:13:20.549Z,101475.00
2023-05-12T23:15:50.631Z,101464.00
2023-05-12T23:18:20.831Z,101474.00
2023-05-12T23:20:50.868Z,101468.00
2023-05-12T23:23:20.875Z,101468.00
2023-05-12T23:25:53.583Z,101468.00
2023-05-12T23:28:23.666Z,101467.00
2023-05-12T23:30:53.727Z,101469.00
2023-05-12T23:33:23.896Z,101462.00
2023-05-12T23:35:53.978Z,101466.00
2023-05-12T23:38:24.046Z,101468.00
2023-05-12T23:40:56.736Z,101455.00
2023-05-12T23:43:27.158Z,101464.00
2023-05-12T23:45:57.240Z,101468.00
2023-05-12T23:48:27.503Z,101455.00
2023-05-12T23:50:57.565Z,101462.00
2023-05-12T23:53:27.663Z,101456.00
2023-05-12T23:56:00.467Z,101455.00
2023-05-12T23:58:30.750Z,101457.00
